createdAt,value
2023-06-29T00:01:30.930Z,18.41
2023-06-29T00:03:33.234Z,18.41
2023-06-29T00:05:36.756Z,18.38
2023-06-29T00:07:38.331Z,18.36
2023-06-29T00:09:40.449Z,18.33
2023-06-29T00:11:41.961Z,18.29
2023-06-29T00:13:43.531Z,18.28
2023-06-29T00:15:45.766Z,18.28
2023-06-29T00:17:48.514Z,18.26
2023-06-29T00:19:50.289Z,18.24
2023-06-29T00:21:51.896Z,18.23
2023-06-29T00:23:54.654Z,18.26
2023-06-29T00:25:57.510Z,18.31
2023-06-29T00:27:59.559Z,18.35
2023-06-29T00:30:01.196Z,18.38
2023-06-29T00:32:02.780Z,18.41
2023-06-29T00:34:04.335Z,18.41
2023-06-29T00:36:06.085Z,18.41
2023-06-29T00:38:07.563Z,18.40
2023-06-29T00:40:10.563Z,18.38
2023-06-29T00:42:12.105Z,18.35
2023-06-29T00:44:13.596Z,18.34
2023-06-29T00:46:19.406Z,18.34
2023-06-29T00:48:20.989Z,18.33
2023-06-29T00:50:22.952Z,18.33
2023-06-29T00:52:24.816Z,18.32
2023-06-29T00:54:26.605Z,18.31
2023-06-29T00:56:31.903Z,18.30
2023-06-29T00:58:33.451Z,18.27
2023-06-29T01:00:35.242Z,18.26
2023-06-29T01:02:41.233Z,18.23
2023-06-29T01:04:47.010Z,18.23
2023-06-29T01:06:56.042Z,18.20
2023-06-29T01:09:07.037Z,18.17
2023-06-29T01:11:09.332Z,18.13
2023-06-29T01:13:11.300Z,18.11
2023-06-29T01:15:12.958Z,18.06
2023-06-29T01:17:18.834Z,18.03
2023-06-29T01:19:24.621Z,17.98
2023-06-29T01:21:26.977Z,17.94
2023-06-29T01:23:37.463Z,17.91
2023-06-29T01:25:39.265Z,17.91
2023-06-29T01:27:44.705Z,17.91
2023-06-29T01:29:46.323Z,17.91
2023-06-29T01:31:48.315Z,17.91
2023-06-29T01:33:49.927Z,17.89
2023-06-29T01:36:01.298Z,17.88
2023-06-29T01:38:13.801Z,17.86
2023-06-29T01:40:19.808Z,17.85
2023-06-29T01:42:22.426Z,17.85
2023-06-29T01:44:24.191Z,17.85
2023-06-29T01:46:26.385Z,17.84
2023-06-29T01:48:28.469Z,17.80
2023-06-29T01:50:30.884Z,17.82
2023-06-29T01:52:32.606Z,17.84
2023-06-29T01:54:34.274Z,17.86
2023-06-29T01:56:35.831Z,17.87
2023-06-29T01:58:37.344Z,17.85
2023-06-29T02:00:38.976Z,17.83
2023-06-29T02:02:40.892Z,17.81
2023-06-29T02:04:42.426Z,17.83
2023-06-29T02:06:43.908Z,17.86
2023-06-29T02:08:46.012Z,17.87
2023-06-29T02:10:47.520Z,17.87
2023-06-29T02:12:49.033Z,17.86
2023-06-29T02:14:50.547Z,17.84
2023-06-29T02:16:52.701Z,17.83
2023-06-29T02:18:54.219Z,17.81
2023-06-29T02:20:55.716Z,17.80
2023-06-29T02:22:57.237Z,17.79
2023-06-29T02:24:58.744Z,17.79
2023-06-29T02:27:00.256Z,17.80
2023-06-29T02:29:01.739Z,17.83
2023-06-29T02:31:03.265Z,17.85
2023-06-29T02:33:04.834Z,17.85
2023-06-29T02:35:07.275Z,17.88
2023-06-29T02:37:08.786Z,17.88
2023-06-29T02:39:10.389Z,17.84
2023-06-29T02:41:11.875Z,17.84
2023-06-29T02:43:13.480Z,17.85
2023-06-29T02:45:15.070Z,17.87
2023-06-29T02:47:16.548Z,17.88
2023-06-29T02:49:18.188Z,17.89
2023-06-29T02:51:19.660Z,17.88
2023-06-29T02:53:21.132Z,17.89
2023-06-29T02:55:24.268Z,17.88
2023-06-29T02:57:25.783Z,17.88
2023-06-29T02:59:27.314Z,17.91
2023-06-29T03:01:29.004Z,17.92
2023-06-29T03:03:30.576Z,17.92
2023-06-29T03:05:32.099Z,17.94
2023-06-29T03:07:34.296Z,17.96
2023-06-29T03:09:35.889Z,17.96
2023-06-29T03:11:37.375Z,17.95
2023-06-29T03:13:38.880Z,17.93
2023-06-29T03:15:40.390Z,17.92
2023-06-29T03:17:42.057Z,17.87
2023-06-29T03:19:43.776Z,17.84
2023-06-29T03:21:45.266Z,17.86
2023-06-29T03:23:47.301Z,17.88
2023-06-29T03:25:49.408Z,17.87
2023-06-29T03:27:50.981Z,17.84
2023-06-29T03:29:53.559Z,17.81
2023-06-29T03:31:55.036Z,17.81
2023-06-29T03:33:59.385Z,17.84
2023-06-29T03:36:00.910Z,17.85
2023-06-29T03:38:08.329Z,17.87
2023-06-29T03:40:10.370Z,17.89
2023-06-29T03:42:12.001Z,17.89
2023-06-29T03:44:13.591Z,17.89
2023-06-29T03:46:15.132Z,17.91
2023-06-29T03:48:16.685Z,17.93
2023-06-29T03:50:18.716Z,17.94
2023-06-29T03:52:21.429Z,17.94
2023-06-29T03:54:22.997Z,17.95
2023-06-29T03:56:24.594Z,17.96
2023-06-29T03:58:26.203Z,17.98
2023-06-29T04:00:27.856Z,18.00
2023-06-29T04:02:29.650Z,18.01
2023-06-29T04:04:31.299Z,18.01
2023-06-29T04:06:32.857Z,18.00
2023-06-29T04:08:34.645Z,17.97
2023-06-29T04:10:36.454Z,17.99
2023-06-29T04:12:38.017Z,18.02
2023-06-29T04:14:39.580Z,18.05
2023-06-29T04:16:41.159Z,18.06
2023-06-29T04:18:42.735Z,18.07
2023-06-29T04:20:44.241Z,18.11
2023-06-29T04:22:45.743Z,18.11
2023-06-29T04:24:47.338Z,18.14
2023-06-29T04:26:48.842Z,18.16
2023-06-29T04:28:50.395Z,18.18
2023-06-29T04:30:51.954Z,18.18
2023-06-29T04:32:53.621Z,18.19
2023-06-29T04:34:55.293Z,18.20
2023-06-29T04:36:57.696Z,18.22
2023-06-29T04:38:59.994Z,18.23
2023-06-29T04:41:05.141Z,18.23
2023-06-29T04:43:09.883Z,18.24
2023-06-29T04:45:13.754Z,18.24
2023-06-29T04:47:15.457Z,18.24
2023-06-29T04:49:16.966Z,18.24
2023-06-29T04:51:19.657Z,18.22
2023-06-29T04:53:21.241Z,18.21
2023-06-29T04:55:23.926Z,18.21
2023-06-29T04:57:27.424Z,18.24
2023-06-29T04:59:30.996Z,18.24
2023-06-29T05:01:32.519Z,18.27
2023-06-29T05:03:34.412Z,18.30
2023-06-29T05:05:35.919Z,18.31
2023-06-29T05:07:39.105Z,18.32
2023-06-29T05:09:40.890Z,18.32
2023-06-29T05:11:42.849Z,18.35
2023-06-29T05:13:44.354Z,18.39
2023-06-29T05:15:48.931Z,18.41
2023-06-29T05:17:50.549Z,18.43
2023-06-29T05:19:52.128Z,18.47
2023-06-29T05:21:53.733Z,18.49
2023-06-29T05:23:55.697Z,18.50
2023-06-29T05:25:57.280Z,18.50
2023-06-29T05:27:58.806Z,18.48
2023-06-29T05:30:00.371Z,18.49
2023-06-29T05:32:01.964Z,18.48
2023-06-29T05:34:03.448Z,18.51
2023-06-29T05:36:05.128Z,18.50
2023-06-29T05:38:06.724Z,18.46
2023-06-29T05:40:09.518Z,18.43
2023-06-29T05:42:11.095Z,18.46
2023-06-29T05:44:12.603Z,18.50
2023-06-29T05:46:14.122Z,18.56
2023-06-29T05:48:15.788Z,18.64
2023-06-29T05:50:17.507Z,18.65
2023-06-29T05:52:19.025Z,18.71
2023-06-29T05:54:20.548Z,18.76
2023-06-29T05:56:22.037Z,18.82
2023-06-29T05:58:25.115Z,18.88
2023-06-29T06:00:26.857Z,18.96
2023-06-29T06:02:28.525Z,18.98
2023-06-29T06:04:30.068Z,19.02
2023-06-29T06:06:31.927Z,19.09
2023-06-29T06:08:34.151Z,19.10
2023-06-29T06:10:36.018Z,19.17
2023-06-29T06:12:37.564Z,19.24
2023-06-29T06:14:39.298Z,19.29
2023-06-29T06:16:40.940Z,19.36
2023-06-29T06:18:42.486Z,19.45
2023-06-29T06:20:44.176Z,19.52
2023-06-29T06:22:45.812Z,19.59
2023-06-29T06:24:47.327Z,19.61
2023-06-29T06:26:48.824Z,19.65
2023-06-29T06:28:52.138Z,19.65
2023-06-29T06:30:55.037Z,19.68
2023-06-29T06:32:56.730Z,19.66
2023-06-29T06:34:58.484Z,19.70
2023-06-29T06:37:00.061Z,19.71
2023-06-29T06:39:01.598Z,19.77
2023-06-29T06:41:03.133Z,19.79
2023-06-29T06:43:04.969Z,19.79
2023-06-29T06:45:07.533Z,19.77
2023-06-29T06:47:09.075Z,19.77
2023-06-29T06:49:10.559Z,19.77
2023-06-29T06:51:12.049Z,19.76
2023-06-29T06:53:13.639Z,19.80
2023-06-29T06:55:15.183Z,19.86
2023-06-29T06:57:16.713Z,19.84
2023-06-29T06:59:18.211Z,19.88
2023-06-29T07:01:23.564Z,19.91
2023-06-29T07:03:27.195Z,19.94
2023-06-29T07:05:28.814Z,19.98
2023-06-29T07:07:30.394Z,19.98
2023-06-29T07:09:31.966Z,20.00
2023-06-29T07:11:33.550Z,20.02
2023-06-29T07:13:35.035Z,20.07
2023-06-29T07:15:36.566Z,20.13
2023-06-29T07:17:38.083Z,20.16
2023-06-29T07:24:08.082Z,20.35
2023-06-29T07:26:10.162Z,20.40
2023-06-29T07:28:11.680Z,20.46
2023-06-29T07:30:13.778Z,20.47
2023-06-29T07:32:15.290Z,20.50
2023-06-29T07:34:16.880Z,20.50
2023-06-29T07:36:18.396Z,20.57
2023-06-29T07:38:19.963Z,20.66
2023-06-29T07:40:21.491Z,20.73
2023-06-29T07:42:38.142Z,20.82
2023-06-29T07:44:41.376Z,20.92
2023-06-29T07:46:42.855Z,20.98
2023-06-29T07:48:44.428Z,21.10
2023-06-29T07:50:46.029Z,21.17
2023-06-29T07:52:47.879Z,21.20
2023-06-29T07:54:50.538Z,21.33
2023-06-29T07:58:56.496Z,21.52
2023-06-29T08:00:58.260Z,21.58
2023-06-29T08:02:59.809Z,21.63
2023-06-29T08:07:10.069Z,21.79
2023-06-29T08:09:12.357Z,21.84
2023-06-29T08:11:15.196Z,21.93
2023-06-29T08:13:17.306Z,21.96
2023-06-29T08:15:18.817Z,21.97
2023-06-29T08:17:20.535Z,21.95
2023-06-29T08:19:22.319Z,21.95
2023-06-29T08:21:23.952Z,22.00
2023-06-29T08:23:25.509Z,22.01
2023-06-29T08:25:27.062Z,22.03
2023-06-29T08:27:28.553Z,22.03
2023-06-29T08:29:30.035Z,22.01
2023-06-29T08:31:31.632Z,22.03
2023-06-29T08:33:33.249Z,22.06
2023-06-29T08:35:34.939Z,22.10
2023-06-29T08:37:36.526Z,22.10
2023-06-29T08:39:39.614Z,22.04
2023-06-29T08:41:41.097Z,22.01
2023-06-29T08:43:43.102Z,21.99
2023-06-29T08:45:46.276Z,21.98
2023-06-29T08:47:53.026Z,21.96
2023-06-29T08:49:58.016Z,21.94
2023-06-29T08:52:00.810Z,21.93
2023-06-29T08:54:02.991Z,21.95
2023-06-29T08:56:04.967Z,21.93
2023-06-29T08:58:07.013Z,21.94
2023-06-29T09:00:09.832Z,21.93
2023-06-29T09:02:11.837Z,21.90
2023-06-29T09:04:13.545Z,21.88
2023-06-29T09:06:16.244Z,21.84
2023-06-29T09:08:18.469Z,21.82
2023-06-29T09:10:20.054Z,21.82
2023-06-29T09:12:21.595Z,21.80
2023-06-29T09:14:23.870Z,21.79
2023-06-29T09:16:30.078Z,21.77
2023-06-29T09:18:33.675Z,21.78
2023-06-29T09:20:36.187Z,21.78
2023-06-29T09:22:40.444Z,21.78
2023-06-29T09:24:57.367Z,21.77
2023-06-29T09:27:03.996Z,21.74
2023-06-29T09:29:05.605Z,21.75
2023-06-29T09:31:09.792Z,21.79
2023-06-29T09:33:12.849Z,21.86
2023-06-29T09:35:14.461Z,21.92
2023-06-29T09:37:17.243Z,22.05
2023-06-29T09:39:19.702Z,22.16
2023-06-29T09:41:21.241Z,22.23
2023-06-29T09:43:27.609Z,22.31
2023-06-29T09:45:31.699Z,22.36
2023-06-29T09:49:51.443Z,22.44
2023-06-29T09:52:04.067Z,22.51
2023-06-29T09:54:05.770Z,22.60
2023-06-29T09:56:07.906Z,22.68
2023-06-29T09:58:09.677Z,22.57
2023-06-29T10:00:12.833Z,22.52
2023-06-29T10:02:15.141Z,22.56
2023-06-29T10:04:16.661Z,22.50
2023-06-29T10:06:22.836Z,22.51
2023-06-29T10:08:28.272Z,22.56
2023-06-29T10:10:34.372Z,22.57
2023-06-29T10:12:35.945Z,22.57
2023-06-29T10:14:43.193Z,22.52
2023-06-29T10:16:50.183Z,22.43
2023-06-29T10:18:55.437Z,22.39
2023-06-29T10:20:57.410Z,22.34
2023-06-29T10:23:02.274Z,22.29
2023-06-29T10:25:08.966Z,22.29
2023-06-29T10:27:11.616Z,22.33
2023-06-29T10:29:13.213Z,22.35
2023-06-29T10:31:20.144Z,22.40
2023-06-29T10:33:23.379Z,22.47
2023-06-29T10:35:27.124Z,22.56
2023-06-29T10:37:32.819Z,22.65
2023-06-29T10:39:45.277Z,22.71
2023-06-29T10:41:48.733Z,22.75
2023-06-29T10:44:01.520Z,22.85
2023-06-29T10:46:03.204Z,22.85
2023-06-29T10:48:07.050Z,22.82
2023-06-29T10:50:29.532Z,22.79
2023-06-29T10:52:33.180Z,22.71
2023-06-29T10:54:34.871Z,22.69
2023-06-29T10:56:36.398Z,22.72
2023-06-29T10:58:38.778Z,22.77
2023-06-29T11:00:41.107Z,22.87
2023-06-29T11:02:43.217Z,22.99
2023-06-29T11:04:45.120Z,23.17
2023-06-29T11:06:46.737Z,23.37
2023-06-29T11:08:48.902Z,23.50
2023-06-29T11:10:54.255Z,23.56
2023-06-29T11:12:56.259Z,23.52
2023-06-29T11:15:18.251Z,23.53
2023-06-29T11:17:20.206Z,23.48
2023-06-29T11:19:27.181Z,23.45
2023-06-29T11:21:28.767Z,23.39
2023-06-29T11:23:30.331Z,23.37
2023-06-29T11:25:31.951Z,23.34
2023-06-29T11:27:33.676Z,23.26
2023-06-29T11:29:35.333Z,23.19
2023-06-29T11:31:37.079Z,23.23
2023-06-29T11:33:50.784Z,23.12
2023-06-29T11:35:52.344Z,23.01
2023-06-29T11:38:01.744Z,22.94
2023-06-29T11:40:08.966Z,22.90
2023-06-29T11:42:10.820Z,22.88
2023-06-29T11:44:15.040Z,22.87
2023-06-29T11:46:18.646Z,22.82
2023-06-29T11:48:20.589Z,22.81
2023-06-29T11:50:23.982Z,22.85
2023-06-29T11:52:26.134Z,22.91
2023-06-29T11:54:30.744Z,22.96
2023-06-29T11:56:39.837Z,23.00
2023-06-29T11:58:44.214Z,23.05
2023-06-29T12:00:45.802Z,23.06
2023-06-29T12:02:47.727Z,23.07
2023-06-29T12:04:56.519Z,23.12
2023-06-29T12:06:58.963Z,23.16
2023-06-29T12:09:00.640Z,23.24
2023-06-29T12:11:04.692Z,23.31
2023-06-29T12:13:09.930Z,23.36
2023-06-29T12:15:16.375Z,23.35
2023-06-29T12:19:51.460Z,23.42
2023-06-29T12:22:12.518Z,23.43
2023-06-29T12:24:17.762Z,23.42
2023-06-29T12:26:20.481Z,23.40
2023-06-29T12:28:22.999Z,23.39
2023-06-29T12:30:24.608Z,23.43
2023-06-29T12:32:26.123Z,23.42
2023-06-29T12:34:30.013Z,23.45
2023-06-29T12:36:31.568Z,23.47
2023-06-29T12:38:33.054Z,23.52
2023-06-29T12:40:35.020Z,23.65
2023-06-29T12:42:38.709Z,23.75
2023-06-29T12:44:40.552Z,23.82
2023-06-29T12:46:42.090Z,23.88
2023-06-29T12:48:46.670Z,23.85
2023-06-29T12:50:48.561Z,23.87
2023-06-29T12:52:50.402Z,23.93
2023-06-29T12:54:53.423Z,23.92
2023-06-29T12:56:55.011Z,23.94
2023-06-29T12:58:56.552Z,23.92
2023-06-29T13:00:58.202Z,23.86
2023-06-29T13:03:00.219Z,23.84
2023-06-29T13:05:02.466Z,23.84
2023-06-29T13:07:04.156Z,23.87
2023-06-29T13:09:05.761Z,23.93
2023-06-29T13:11:07.553Z,23.99
2023-06-29T13:13:09.139Z,24.05
2023-06-29T13:15:11.336Z,24.12
2023-06-29T13:17:13.290Z,24.10
2023-06-29T13:19:14.958Z,24.02
2023-06-29T13:21:17.096Z,23.97
2023-06-29T13:23:18.723Z,23.99
2023-06-29T13:25:22.282Z,24.01
2023-06-29T13:27:23.784Z,24.00
2023-06-29T13:29:25.645Z,23.99
2023-06-29T13:31:27.390Z,24.06
2023-06-29T13:33:29.017Z,24.15
2023-06-29T13:35:30.566Z,24.14
2023-06-29T13:37:32.154Z,24.16
2023-06-29T13:39:34.266Z,24.17
2023-06-29T13:41:37.125Z,24.09
2023-06-29T13:43:38.645Z,24.07
2023-06-29T13:45:40.217Z,24.04
2023-06-29T13:47:43.876Z,23.97
2023-06-29T13:49:45.994Z,23.92
2023-06-29T13:51:49.401Z,23.92
2023-06-29T13:53:51.310Z,23.90
2023-06-29T13:55:52.836Z,23.90
2023-06-29T13:57:54.362Z,23.86
2023-06-29T13:59:55.886Z,23.86
2023-06-29T14:01:57.722Z,23.86
2023-06-29T14:04:02.066Z,23.83
2023-06-29T14:06:03.927Z,23.84
2023-06-29T14:08:05.782Z,23.86
2023-06-29T14:10:07.788Z,23.88
2023-06-29T14:12:09.640Z,23.84
2023-06-29T14:14:11.321Z,23.80
2023-06-29T14:16:12.886Z,23.68
2023-06-29T14:18:14.593Z,23.62
2023-06-29T14:20:16.271Z,23.54
2023-06-29T14:22:17.798Z,23.40
2023-06-29T14:24:19.441Z,23.30
2023-06-29T14:26:22.171Z,23.22
2023-06-29T14:28:23.714Z,23.12
2023-06-29T14:30:25.237Z,23.03
2023-06-29T14:32:26.896Z,22.87
2023-06-29T14:34:28.503Z,22.72
2023-06-29T14:36:30.084Z,22.58
2023-06-29T14:38:32.016Z,22.52
2023-06-29T14:40:33.554Z,22.50
2023-06-29T14:42:35.166Z,22.41
2023-06-29T14:44:36.889Z,22.31
2023-06-29T14:46:38.550Z,22.21
2023-06-29T14:48:40.056Z,22.14
2023-06-29T14:50:41.605Z,21.89
2023-06-29T14:52:43.128Z,21.78
2023-06-29T14:54:44.639Z,21.78
2023-06-29T14:56:46.291Z,21.75
2023-06-29T14:58:47.860Z,21.69
2023-06-29T15:00:49.552Z,21.70
2023-06-29T15:02:51.166Z,21.81
2023-06-29T15:04:53.145Z,21.87
2023-06-29T15:06:54.781Z,21.81
2023-06-29T15:08:56.554Z,21.83
2023-06-29T15:10:58.098Z,21.84
2023-06-29T15:12:59.677Z,21.86
2023-06-29T15:15:02.845Z,21.92
2023-06-29T15:17:04.681Z,21.94
2023-06-29T15:19:06.233Z,21.90
2023-06-29T15:21:07.841Z,21.89
2023-06-29T15:23:09.483Z,21.89
2023-06-29T15:25:11.318Z,21.92
2023-06-29T15:27:12.856Z,21.92
2023-06-29T15:29:14.363Z,21.85
2023-06-29T15:31:16.194Z,21.75
2023-06-29T15:33:18.750Z,21.70
2023-06-29T15:35:20.379Z,21.71
2023-06-29T15:37:22.129Z,21.72
2023-06-29T15:39:23.731Z,21.68
2023-06-29T15:41:25.353Z,21.65
2023-06-29T15:43:27.536Z,21.63
2023-06-29T15:45:29.204Z,21.56
2023-06-29T15:47:30.887Z,21.53
2023-06-29T15:49:32.549Z,21.51
2023-06-29T15:51:34.075Z,21.46
2023-06-29T15:53:35.589Z,21.44
2023-06-29T15:55:37.140Z,21.42
2023-06-29T15:57:38.683Z,21.39
2023-06-29T15:59:40.224Z,21.34
2023-06-29T16:01:41.762Z,21.26
2023-06-29T16:03:43.494Z,21.22
2023-06-29T16:05:45.632Z,21.21
2023-06-29T16:07:47.917Z,21.19
2023-06-29T16:09:49.515Z,21.21
2023-06-29T16:11:51.082Z,21.13
2023-06-29T16:13:52.695Z,21.06
2023-06-29T16:15:54.260Z,21.04
2023-06-29T16:17:55.778Z,21.02
2023-06-29T16:19:57.692Z,20.99
2023-06-29T16:21:59.217Z,20.96
2023-06-29T16:24:00.703Z,20.87
2023-06-29T16:26:02.255Z,20.79
2023-06-29T16:28:03.876Z,20.76
2023-06-29T16:30:06.331Z,20.72
2023-06-29T16:32:08.325Z,20.73
2023-06-29T16:34:10.004Z,20.73
2023-06-29T16:36:11.676Z,20.72
2023-06-29T16:38:13.218Z,20.70
2023-06-29T16:40:14.811Z,20.65
2023-06-29T16:42:16.450Z,20.65
2023-06-29T16:44:18.002Z,20.68
2023-06-29T16:46:19.545Z,20.63
2023-06-29T16:48:21.071Z,20.65
2023-06-29T16:50:23.429Z,20.73
2023-06-29T16:52:24.932Z,20.74
2023-06-29T16:54:26.498Z,20.76
2023-06-29T16:56:29.550Z,20.83
2023-06-29T16:58:31.140Z,20.84
2023-06-29T17:00:32.685Z,20.78
2023-06-29T17:02:34.302Z,20.70
2023-06-29T17:04:35.858Z,20.66
2023-06-29T17:06:37.398Z,20.65
2023-06-29T17:08:40.975Z,20.70
2023-06-29T17:10:42.651Z,20.74
2023-06-29T17:12:44.316Z,20.72
2023-06-29T17:14:45.889Z,20.74
2023-06-29T17:16:47.564Z,20.80
2023-06-29T17:18:49.159Z,20.88
2023-06-29T17:20:50.779Z,20.92
2023-06-29T17:22:52.498Z,20.89
2023-06-29T17:24:54.582Z,20.92
2023-06-29T17:26:56.255Z,20.92
2023-06-29T17:28:58.256Z,20.92
2023-06-29T17:30:59.985Z,20.93
2023-06-29T17:33:01.531Z,20.95
2023-06-29T17:35:03.524Z,21.00
2023-06-29T17:37:05.341Z,21.08
2023-06-29T17:39:06.829Z,21.14
2023-06-29T17:41:09.686Z,21.13
2023-06-29T17:43:11.914Z,21.10
2023-06-29T17:45:13.474Z,21.06
2023-06-29T17:47:15.201Z,21.05
2023-06-29T17:49:16.714Z,21.08
2023-06-29T17:51:19.977Z,21.10
2023-06-29T17:53:21.821Z,21.10
2023-06-29T17:55:23.382Z,21.13
2023-06-29T17:57:24.877Z,21.11
2023-06-29T17:59:26.507Z,21.08
2023-06-29T18:01:28.161Z,20.99
2023-06-29T18:03:29.982Z,20.96
2023-06-29T18:05:31.603Z,20.94
2023-06-29T18:07:33.278Z,20.90
2023-06-29T18:09:34.819Z,20.86
2023-06-29T18:11:36.364Z,20.82
2023-06-29T18:13:37.935Z,20.80
2023-06-29T18:15:39.645Z,20.77
2023-06-29T18:17:41.182Z,20.68
2023-06-29T18:19:42.724Z,20.56
2023-06-29T18:21:45.919Z,20.42
2023-06-29T18:23:47.444Z,20.26
2023-06-29T18:25:49.016Z,20.14
2023-06-29T18:27:50.626Z,20.04
2023-06-29T18:29:52.417Z,20.01
2023-06-29T18:31:54.431Z,19.96
2023-06-29T18:33:57.154Z,19.96
2023-06-29T18:35:58.726Z,19.96
2023-06-29T18:38:00.538Z,19.97
2023-06-29T18:40:02.067Z,19.96
2023-06-29T18:42:03.762Z,19.98
2023-06-29T18:44:06.078Z,19.98
2023-06-29T18:46:07.706Z,19.98
2023-06-29T18:48:09.398Z,20.01
2023-06-29T18:50:11.372Z,20.00
2023-06-29T18:52:13.313Z,19.92
2023-06-29T18:54:14.818Z,19.86
2023-06-29T18:56:16.360Z,19.81
2023-06-29T18:58:17.843Z,19.80
2023-06-29T19:00:19.465Z,19.77
2023-06-29T19:02:20.963Z,19.75
2023-06-29T19:04:22.438Z,19.72
2023-06-29T19:06:24.260Z,19.68
2023-06-29T19:08:26.195Z,19.65
2023-06-29T19:10:30.097Z,19.63
2023-06-29T19:12:31.993Z,19.60
2023-06-29T19:14:33.650Z,19.56
2023-06-29T19:16:35.897Z,19.52
2023-06-29T19:18:37.464Z,19.50
2023-06-29T19:20:38.993Z,19.47
2023-06-29T19:22:40.562Z,19.46
2023-06-29T19:24:42.156Z,19.45
2023-06-29T19:26:43.849Z,19.43
2023-06-29T19:28:45.566Z,19.43
2023-06-29T19:30:47.233Z,19.40
2023-06-29T19:32:48.786Z,19.37
2023-06-29T19:34:51.515Z,19.34
2023-06-29T19:36:53.135Z,19.33
2023-06-29T19:38:54.650Z,19.31
2023-06-29T19:40:56.600Z,19.29
2023-06-29T19:42:58.714Z,19.26
2023-06-29T19:45:00.289Z,19.26
2023-06-29T19:47:01.934Z,19.22
2023-06-29T19:49:03.887Z,19.21
2023-06-29T19:51:05.571Z,19.24
2023-06-29T19:53:07.407Z,19.25
2023-06-29T19:55:10.915Z,19.23
2023-06-29T19:57:13.293Z,19.19
2023-06-29T19:59:14.982Z,19.16
2023-06-29T20:01:16.617Z,19.16
2023-06-29T20:03:19.383Z,19.14
2023-06-29T20:05:21.613Z,19.13
2023-06-29T20:07:23.343Z,19.14
2023-06-29T20:09:25.149Z,19.13
2023-06-29T20:11:28.763Z,19.13
2023-06-29T20:13:30.316Z,19.11
2023-06-29T20:15:32.014Z,19.11
2023-06-29T20:17:35.682Z,19.11
2023-06-29T20:19:37.297Z,19.12
2023-06-29T20:21:38.829Z,19.14
2023-06-29T20:23:40.321Z,19.14
2023-06-29T20:25:41.843Z,19.14
2023-06-29T20:27:44.907Z,19.14
2023-06-29T20:29:49.750Z,19.11
2023-06-29T20:31:51.397Z,19.11
2023-06-29T20:33:53.366Z,19.09
2023-06-29T20:35:54.962Z,19.08
2023-06-29T20:37:56.468Z,19.06
2023-06-29T20:39:57.973Z,19.04
2023-06-29T20:41:59.903Z,19.05
2023-06-29T20:44:01.441Z,19.03
2023-06-29T20:46:03.058Z,19.02
2023-06-29T20:48:05.164Z,19.01
2023-06-29T20:50:07.314Z,18.99
2023-06-29T20:52:08.841Z,19.00
2023-06-29T20:54:10.427Z,18.96
2023-06-29T20:56:11.954Z,18.90
2023-06-29T20:58:13.585Z,18.85
2023-06-29T21:00:15.637Z,18.79
2023-06-29T21:02:18.587Z,18.78
2023-06-29T21:04:20.377Z,18.78
2023-06-29T21:06:22.135Z,18.78
2023-06-29T21:08:23.627Z,18.76
2023-06-29T21:10:25.196Z,18.76
2023-06-29T21:12:27.301Z,18.74
2023-06-29T21:14:28.993Z,18.73
2023-06-29T21:16:31.036Z,18.74
2023-06-29T21:18:32.918Z,18.72
2023-06-29T21:20:35.743Z,18.69
2023-06-29T21:22:37.774Z,18.72
2023-06-29T21:24:39.604Z,18.73
2023-06-29T21:26:41.234Z,18.74
2023-06-29T21:28:43.521Z,18.75
2023-06-29T21:30:45.315Z,18.69
2023-06-29T21:32:47.196Z,18.65
2023-06-29T21:34:48.969Z,18.61
2023-06-29T21:36:50.679Z,18.58
2023-06-29T21:38:52.319Z,18.55
2023-06-29T21:40:53.893Z,18.51
2023-06-29T21:42:55.473Z,18.50
2023-06-29T21:44:56.973Z,18.45
2023-06-29T21:47:01.297Z,18.41
2023-06-29T21:49:02.992Z,18.38
2023-06-29T21:51:04.493Z,18.34
2023-06-29T21:53:05.986Z,18.34
2023-06-29T21:55:07.922Z,18.33
2023-06-29T21:57:09.458Z,18.33
2023-06-29T21:59:11.008Z,18.33
2023-06-29T22:01:12.631Z,18.32
2023-06-29T22:03:14.279Z,18.30
2023-06-29T22:05:16.087Z,18.28
2023-06-29T22:07:17.772Z,18.26
2023-06-29T22:09:19.716Z,18.23
2023-06-29T22:11:22.172Z,18.17
2023-06-29T22:13:24.372Z,18.14
2023-06-29T22:15:25.891Z,18.08
2023-06-29T22:17:27.935Z,18.04
2023-06-29T22:19:29.686Z,18.02
2023-06-29T22:21:31.480Z,17.96
2023-06-29T22:23:33.274Z,17.94
2023-06-29T22:25:34.775Z,17.87
2023-06-29T22:27:37.138Z,17.75
2023-06-29T22:29:38.646Z,17.66
2023-06-29T22:31:40.182Z,17.59
2023-06-29T22:33:41.711Z,17.55
2023-06-29T22:35:43.511Z,17.54
2023-06-29T22:37:45.304Z,17.48
2023-06-29T22:39:49.662Z,17.49
2023-06-29T22:41:51.170Z,17.43
2023-06-29T22:43:58.449Z,17.36
2023-06-29T22:46:00.086Z,17.28
2023-06-29T22:48:03.261Z,17.22
2023-06-29T22:50:05.717Z,17.18
2023-06-29T22:52:07.441Z,17.20
2023-06-29T22:54:10.075Z,17.21
2023-06-29T22:56:11.643Z,17.20
2023-06-29T22:58:20.905Z,17.17
2023-06-29T23:00:22.928Z,17.13
2023-06-29T23:02:24.531Z,17.08
2023-06-29T23:04:26.111Z,17.05
2023-06-29T23:06:29.298Z,17.04
2023-06-29T23:08:31.105Z,17.03
2023-06-29T23:10:32.580Z,17.00
2023-06-29T23:12:34.063Z,16.99
2023-06-29T23:14:36.317Z,16.97
2023-06-29T23:16:37.851Z,16.92
2023-06-29T23:18:39.598Z,16.90
2023-06-29T23:20:47.660Z,16.90
2023-06-29T23:22:49.273Z,16.86
2023-06-29T23:24:53.788Z,16.81
2023-06-29T23:26:55.666Z,16.78
2023-06-29T23:28:57.141Z,16.76
2023-06-29T23:30:58.795Z,16.75
2023-06-29T23:33:00.402Z,16.73
2023-06-29T23:35:01.935Z,16.74
2023-06-29T23:37:03.542Z,16.76
2023-06-29T23:39:06.741Z,16.77
2023-06-29T23:41:08.355Z,16.80
2023-06-29T23:43:09.977Z,16.82
2023-06-29T23:45:12.511Z,16.81
2023-06-29T23:47:14.255Z,16.82
2023-06-29T23:49:18.143Z,16.78
2023-06-29T23:51:19.684Z,16.73
2023-06-29T23:53:21.172Z,16.71
2023-06-29T23:55:23.344Z,16.71
2023-06-29T23:57:24.874Z,16.70
2023-06-29T23:59:26.424Z,16.72
